• Join FlightAware (Why Join?)
  • Login
  • US Flag 
06:26AM EDT


 

Airport Tracker/Info


-or-


 

Live Flight TrackerFlight Track Log ✈ SWA2003 ✈ 29-Jun-2013 ✈ KHOU - KMDW

Flight Track Log - Related Links

Times and Time Zones

All times are in EDT time to prevent confusion due to time zone crossing. See the SWA2003 flight status page for this flight to view local times or setup timezone preferences in your user account.

Time Position Orientation Groundspeed Altitude Reporting Facility
EDT Latitude Longitude Course Direction KTS MPH feet Rate Location/Type
07:11AM 29.6308 -95.2633 63° Northeast 163 188 700  Level Houston Center
07:12AM 29.6464 -95.2278 63° Northeast 211 243 2,100 1,740 Climbing Houston Center
07:13AM 29.6817 -95.2350 350° North 212 244 3,300 2,160 Climbing Houston Center
07:14AM 29.7456 -95.2519 347° North 231 266 5,800 2,820 Climbing Houston Center
07:15AM 29.8192 -95.2750 345° North 267 307 9,000 2,700 Climbing Houston Center
07:16AM 29.8967 -95.3014 344° North 284 327 11,300 2,400 Climbing Houston Center
07:17AM 29.9869 -95.3278 346° North 335 386 13,900 2,700 Climbing Houston Center
07:18AM 30.0786 -95.2956 17° North 344 396 16,800 2,760 Climbing Houston Center
07:19AM 30.1714 -95.2556 20° North 351 404 19,600 2,280 Climbing Houston Center
07:20AM 30.2692 -95.2142 20° North 370 426 21,500 1,980 Climbing Houston Center
07:21AM 30.3714 -95.1706 20° North 387 445 23,600 1,980 Climbing Houston Center
07:22AM 30.4858 -95.1214 20° North 403 464 25,600 1,920 Climbing Houston Center
07:23AM 30.5961 -95.0728 21° North 418 481 27,500 1,680 Climbing Houston Center
07:24AM 30.7008 -95.0089 28° Northeast 423 487 29,100 1,500 Climbing Houston Center
07:25AM 30.8069 -94.9411 29° Northeast 431 496 30,600 1,560 Climbing Houston Center
07:26AM 30.9147 -94.8731 28° Northeast 442 509 32,300 1,560 Climbing Houston Center
07:27AM 31.0203 -94.8064 28° Northeast 429 494 33,800 1,380 Climbing Houston Center
07:28AM 31.1267 -94.7386 29° Northeast 427 491 35,200 1,260 Climbing Houston Center
07:29AM 31.2367 -94.6667 29° Northeast 443 510 36,400 1,080 Climbing Houston Center
07:30AM 31.3542 -94.5836 31° Northeast 443 510 37,500 1,020 Climbing Houston Center
07:31AM 31.4592 -94.5125 30° Northeast 439 505 38,500 720 Climbing Houston Center
07:32AM 31.5650 -94.4394 30° Northeast 442 509 39,000 240 Climbing Houston Center
07:33AM 31.6706 -94.3653 31° Northeast 443 510 39,000  Level Houston Center
07:34AM 31.7772 -94.2903 31° Northeast 444 511 39,000  Level Houston Center
07:35AM 31.8811 -94.2189 30° Northeast 442 509 39,000  Level Houston Center
07:36AM 31.9708 -94.1589 30° Northeast 437 503 39,000  Level Fort Worth Center
07:37AM 32.0756 -94.0839 31° Northeast 437 503 39,000  Level Fort Worth Center
07:38AM 32.1797 -94.0067 32° Northeast 437 503 39,000  Level Fort Worth Center
07:39AM 32.2822 -93.9314 32° Northeast 437 503 39,000  Level Fort Worth Center
07:40AM 32.3906 -93.8511 32° Northeast 437 503 39,000  Level Fort Worth Center
07:41AM 32.4989 -93.7753 31° Northeast 442 509 39,000  Level Fort Worth Center
07:42AM 32.6056 -93.7019 30° Northeast 442 509 39,000  Level Fort Worth Center
07:43AM 32.7136 -93.6211 32° Northeast 442 509 39,000  Level Fort Worth Center
07:44AM 32.8197 -93.5447 31° Northeast 442 509 39,000  Level Fort Worth Center
07:45AM 32.9281 -93.4683 31° Northeast 442 509 39,000  Level Fort Worth Center
07:46AM 33.0242 -93.3997 31° Northeast 442 509 39,000  Level Fort Worth Center
07:47AM 33.1300 -93.3231 31° Northeast 442 509 39,000  Level Fort Worth Center
07:48AM 33.2361 -93.2461 31° Northeast 442 509 39,000  Level Fort Worth Center
07:50AM 33.4478 -93.0958 31° Northeast 457 526 39,000  Level Memphis Center
07:51AM 33.5539 -93.0169 32° Northeast 451 519 39,000  Level Memphis Center
07:52AM 33.6617 -92.9453 29° Northeast 441 507 39,000  Level Memphis Center
07:53AM 33.7756 -92.8986 19° North 434 499 39,000  Level Memphis Center
07:54AM 33.8911 -92.8494 19° North 434 499 39,000  Level Memphis Center
07:55AM 34.0069 -92.7953 21° North 434 499 39,000  Level Memphis Center
07:56AM 34.1228 -92.7483 19° North 434 499 39,000  Level Memphis Center
07:57AM 34.2386 -92.6964 20° North 434 499 39,000  Level Memphis Center
07:58AM 34.3481 -92.6439 22° Northeast 429 494 39,000  Level Memphis Center
07:59AM 34.4617 -92.5967 19° North 430 495 39,000  Level Memphis Center
08:00AM 34.5792 -92.5492 18° North 430 495 39,000  Level Memphis Center
08:01AM 34.6928 -92.5042 18° North 430 495 39,000  Level Memphis Center
08:02AM 34.8039 -92.4614 18° North 424 488 39,000  Level Memphis Center
08:03AM 34.9197 -92.4061 21° North 424 488 39,000  Level Memphis Center
08:04AM 35.0331 -92.3581 19° North 424 488 39,000  Level Memphis Center
08:05AM 35.1422 -92.3122 19° North 424 488 39,000  Level Memphis Center
08:06AM 35.2514 -92.2692 18° North 418 481 39,000  Level Memphis Center
08:07AM 35.3628 -92.2208 19° North 418 481 39,000 -240 Level Memphis Center
08:08AM 35.4739 -92.1722 20° North 418 481 38,600 -900 Descending Memphis Center
08:09AM 35.5811 -92.1286 18° North 413 475 37,300 -840 Descending Memphis Center
08:10AM 35.6817 -92.0872 18° North 408 470 37,000 -180 Descending Memphis Center
08:11AM 35.7908 -92.0383 20° North 408 470 37,000  Level Memphis Center
08:12AM 35.9019 -91.9919 19° North 408 470 37,000  Level Memphis Center
08:13AM 36.0108 -91.9481 18° North 408 470 37,000  Level Memphis Center
08:14AM 36.1242 -91.8961 20° North 415 478 37,000  Level Memphis Center
08:15AM 36.2414 -91.8494 18° North 420 483 37,000  Level Memphis Center
08:16AM 36.3525 -91.8000 20° North 426 490 37,000  Level Memphis Center
08:17AM 36.4572 -91.7503 21° North 419 482 37,000  Level Memphis Center
08:18AM 36.5767 -91.7006 18° North 419 482 37,000  Level Memphis Center
08:18AM 36.6272 -91.6764 21° North 431 496 37,000  Level Kansas City Center
08:19AM 36.7639 -91.6156 20° North 433 498 37,000  Level Kansas City Center
08:20AM 36.8786 -91.5664 19° North 435 501 37,000  Level Kansas City Center
08:21AM 36.9925 -91.5172 19° North 433 498 37,000  Level Kansas City Center
08:22AM 37.1072 -91.4650 20° North 436 502 37,000  Level Kansas City Center
08:23AM 37.2256 -91.4114 20° North 443 510 37,000  Level Kansas City Center
08:24AM 37.3406 -91.3594 20° North 440 506 37,000  Level Kansas City Center
08:25AM 37.4547 -91.3089 19° North 437 503 37,000  Level Kansas City Center
08:26AM 37.5706 -91.2578 19° North 438 504 37,000  Level Kansas City Center
08:27AM 37.6867 -91.2267 12° North 426 490 37,000  Level Kansas City Center
08:28AM 37.8014 -91.2011 10° North 421 484 37,000  Level Kansas City Center
08:29AM 37.9178 -91.1747 10° North 423 487 37,000  Level Kansas City Center
08:30AM 38.0314 -91.1453 12° North 419 482 37,000  Level Kansas City Center
08:31AM 38.1625 -91.0789 22° Northeast 423 487 37,000  Level Kansas City Center
08:32AM 38.2575 -91.0331 21° North 423 487 37,000  Level Kansas City Center
08:33AM 38.3664 -90.9808 21° North 419 482 37,000  Level Kansas City Center
08:34AM 38.4753 -90.9261 21° North 419 482 37,000  Level Kansas City Center
08:35AM 38.5839 -90.8708 22° Northeast 418 481 37,000 -300 Level Kansas City Center
08:36AM 38.6936 -90.8172 21° North 418 481 36,400 -840 Descending Kansas City Center
08:37AM 38.8050 -90.7617 21° North 423 487 35,400 -720 Descending Kansas City Center
08:38AM 38.9381 -90.6936 22° Northeast 424 488 35,000 -240 Descending Kansas City Center
08:39AM 39.0478 -90.6383 21° North 422 486 35,000 -300 Level Kansas City Center
08:40AM 39.1550 -90.5836 22° Northeast 415 478 34,400 -840 Descending Kansas City Center
08:41AM 39.2644 -90.5297 21° North 418 481 33,400 -720 Descending Kansas City Center
08:42AM 39.3747 -90.4719 22° Northeast 423 487 33,000 -240 Descending Kansas City Center
08:43AM 39.4856 -90.4167 21° North 425 489 33,000  Level Kansas City Center
08:45AM 39.5944 -90.3611 21° North 422 486 33,000 -300 Level Kansas City Center
08:46AM 39.7028 -90.3044 22° Northeast 420 483 32,400 -840 Descending Kansas City Center
08:47AM 39.8072 -90.2500 22° Northeast 415 478 31,400 -720 Descending Kansas City Center
08:48AM 39.9156 -90.1939 22° Northeast 417 480 31,000 -240 Descending Kansas City Center
08:49AM 40.0225 -90.1381 22° Northeast 415 478 31,000  Level Kansas City Center
08:50AM 40.1342 -90.0322 36° Northeast 417 480 31,000 -300 Level Kansas City Center
08:51AM 40.2203 -89.9303 42° Northeast 420 483 30,400 -840 Descending Kansas City Center
08:52AM 40.3050 -89.8314 42° Northeast 413 475 29,400 -1,080 Descending Kansas City Center
08:53AM 40.3864 -89.7333 43° Northeast 405 466 28,200 -1,020 Descending Chicago Center
08:54AM 40.4669 -89.6367 42° Northeast 398 458 27,300 -900 Descending Chicago Center
08:55AM 40.5489 -89.5356 43° Northeast 406 467 26,400 -1,080 Descending Chicago Center
08:56AM 40.6539 -89.4125 42° Northeast 421 484 25,200 -1,380 Descending Chicago Center
08:57AM 40.7361 -89.3136 42° Northeast 410 472 23,600 -1,800 Descending Chicago Center
08:58AM 40.8156 -89.2181 42° Northeast 396 456 21,600 -2,400 Descending Chicago Center
08:59AM 40.8942 -89.1236 42° Northeast 386 444 18,700 -2,940 Descending Chicago Center
09:00AM 40.9744 -89.0242 43° Northeast 395 455 15,600 -2,760 Descending Chicago Center
09:01AM 41.0553 -88.9269 42° Northeast 391 450 13,100 -2,040 Descending Chicago Center
09:02AM 41.1275 -88.8367 43° Northeast 366 421 11,500 -1,440 Descending Chicago Center
09:03AM 41.2067 -88.7392 43° Northeast 331 381 10,200 -1,200 Descending Chicago Center
09:04AM 41.2667 -88.6644 43° Northeast 305 351 9,100 -1,080 Descending Chicago Center
09:05AM 41.3250 -88.5933 42° Northeast 291 335 8,100 -1,080 Descending Chicago Center
09:06AM 41.3825 -88.5225 43° Northeast 286 329 7,000 -1,080 Descending Chicago Center
09:07AM 41.4344 -88.4494 47° Northeast 280 322 6,000 -540 Descending Chicago Center
09:08AM 41.4550 -88.3511 74° East 277 319 6,000 -300 Level Chicago Center
09:09AM 41.4756 -88.2553 74° East 274 315 5,500 -540 Descending Chicago Center
09:10AM 41.4956 -88.1564 75° East 273 314 5,000 -300 Descending Chicago Center
09:11AM 41.5164 -88.0586 74° East 271 312 5,000  Level Chicago Center
09:12AM 41.5367 -87.9606 75° East 272 313 5,000  Level Chicago Center
09:13AM 41.5594 -87.8467 75° East 268 308 5,000  Level Chicago Center
09:14AM 41.5764 -87.7633 75° East 252 290 5,000 -300 Level Chicago Center
09:15AM 41.5914 -87.6897 75° East 229 264 4,500 -540 Descending Chicago Center
09:16AM 41.6056 -87.6253 74° East 203 234 4,000 -360 Descending Chicago Center
09:17AM 41.6400 -87.5811 44° Northeast 185 213 3,800 -540 Descending Chicago Center
09:18AM 41.6842 -87.6117 333° Northwest 185 213 3,000 -780 Descending Chicago Center
09:19AM 41.7242 -87.6669 314° West 178 205 2,200 -840 Descending Chicago Center
09:20AM 41.7536 -87.7086 313° West 169 194 1,400 -660 Descending Chicago Center
09:21AM 41.7794 -87.7447 314° West 152 175 900 -540 Descending Chicago Center